IKI weather

Iki Airport
Iki, Nagasaki Prefecture, Japan

Public forecast

Using degrees Celsius for public forecast. Weather courtesy of forecast.io.

Closest aviation weather report (METAR) to Iki Airport

Closest report is Fukuoka Airport, 34.7 nm (64.2 km) ESE. Retrieved 2019/10/19 10:30 UTC (12 minutes ago):

RJFF 191030Z 36006KT 9999 FEW020 20/17 Q1019 NOSIG RMK 1CU020 A3009

Closest aviation forecast (TAF) to Iki Airport

Closest forecast is Fukuoka Airport, 34.7 nm (64.2 km) ESE. Retrieved 2019/10/19 06:28 UTC (4 hours ago):

TAF RJFF 190506Z 1906/2012 36009KT 9999 FEW020